Time;durP1;ratioP1;P1;durP2;ratioP2;P2;SDS_P1;SDS_P2;PMS_P1;PMS_P2;Temp;Humidity;BMP_temperature;BMP_pressure;BME280_temperature;BME280_humidity;BME280_pressure;Samples;Min_cycle;Max_cycle;Signal;HPM_P1;HPM_P2
2023/02/28 00:01:12;;;;;;;2.50;2.30;;;;;;;8.16;48.49;103121.59;6213367;28;20223;-71
2023/02/28 00:04:33;;;;;;;2.83;2.47;;;;;;;8.40;48.43;103124.16;6218723;28;20355;-70
2023/02/28 00:07:57;;;;;;;2.20;2.00;;;;;;;8.61;47.76;103120.50;6234659;28;20224;-71
2023/02/28 00:11:18;;;;;;;2.77;2.33;;;;;;;8.43;48.68;103107.88;6226046;28;20232;-70
2023/02/28 00:14:39;;;;;;;1.67;1.40;;;;;;;8.66;47.60;103121.16;6228155;28;20231;-70
2023/02/28 00:18:02;;;;;;;2.23;2.10;;;;;;;8.34;48.20;103127.09;6227615;28;20252;-72
2023/02/28 00:21:23;;;;;;;4.77;3.03;;;;;;;8.26;48.23;103123.84;6215378;28;20224;-72
2023/02/28 00:24:44;;;;;;;1.80;1.67;;;;;;;8.60;47.48;103123.25;6222012;28;20703;-72
2023/02/28 00:28:05;;;;;;;4.50;1.53;;;;;;;8.71;47.36;103118.25;6233749;28;20239;-71
2023/02/28 00:31:27;;;;;;;1.90;1.77;;;;;;;8.68;47.46;103124.66;6214700;28;20357;-70
2023/02/28 00:34:49;;;;;;;3.00;1.83;;;;;;;8.74;47.39;103120.84;6204545;28;20244;-71
2023/02/28 00:38:10;;;;;;;3.73;2.20;;;;;;;8.67;46.91;103125.59;6238020;28;20602;-70
2023/02/28 00:41:31;;;;;;;3.30;1.90;;;;;;;8.67;47.37;103128.28;6224741;28;20276;-72
2023/02/28 00:44:52;;;;;;;3.07;2.30;;;;;;;8.75;47.11;103120.75;6218557;28;20239;-71
2023/02/28 00:48:13;;;;;;;4.80;2.40;;;;;;;8.36;48.16;103127.03;6237767;28;20755;-71
2023/02/28 00:51:35;;;;;;;1.90;1.47;;;;;;;8.50;47.92;103117.41;6226435;28;20326;-71
2023/02/28 00:54:56;;;;;;;1.50;1.40;;;;;;;8.55;48.18;103122.59;6219269;28;24444;-71
2023/02/28 00:58:17;;;;;;;1.83;1.73;;;;;;;8.61;48.32;103127.69;6234186;28;20244;-71
2023/02/28 01:01:39;;;;;;;3.03;2.03;;;;;;;8.61;48.02;103127.69;6223036;28;20220;-70
2023/02/28 01:05:00;;;;;;;3.33;2.10;;;;;;;8.45;48.15;103127.47;6214967;28;20618;-71
2023/02/28 01:08:25;;;;;;;2.83;1.47;;;;;;;8.47;48.05;103127.44;6237586;28;20608;-71
2023/02/28 01:11:46;;;;;;;1.77;1.40;;;;;;;8.38;48.81;103136.78;6227943;28;20575;-72
2023/02/28 01:15:10;;;;;;;4.47;1.97;;;;;;;8.45;48.76;103132.84;6200240;28;20247;-71
2023/02/28 01:18:32;;;;;;;3.17;2.50;;;;;;;8.41;48.94;103135.75;6221742;28;20236;-72
2023/02/28 01:21:53;;;;;;;2.20;2.10;;;;;;;8.40;48.96;103139.38;6205496;28;20236;-71
2023/02/28 01:25:15;;;;;;;6.07;1.53;;;;;;;8.31;49.19;103140.66;6214638;28;20232;-71
2023/02/28 01:28:37;;;;;;;2.10;1.80;;;;;;;7.87;49.67;103147.88;6225787;28;20331;-72
2023/02/28 01:31:59;;;;;;;1.77;1.67;;;;;;;8.22;49.62;103145.53;6221516;28;20232;-72
2023/02/28 01:35:20;;;;;;;2.03;1.43;;;;;;;8.38;48.96;103139.47;6226484;28;20319;-70
2023/02/28 01:38:41;;;;;;;2.50;2.10;;;;;;;8.42;49.19;103141.06;6234387;28;20233;-72
2023/02/28 01:42:04;;;;;;;1.87;1.67;;;;;;;8.37;49.01;103139.50;6225633;28;20263;-71
2023/02/28 01:45:30;;;;;;;3.03;1.70;;;;;;;8.07;48.79;103137.16;6226722;28;20236;-71
2023/02/28 01:48:54;;;;;;;1.23;1.23;;;;;;;7.64;49.68;103137.19;6230587;28;20857;-71
2023/02/28 01:52:17;;;;;;;4.50;2.03;;;;;;;7.94;49.67;103124.31;6202596;28;21355;-71
2023/02/28 01:55:40;;;;;;;2.93;1.80;;;;;;;7.60;50.10;103132.88;6213951;28;20318;-70
2023/02/28 01:59:03;;;;;;;1.80;1.70;;;;;;;7.67;50.40;103128.16;6237793;28;20779;-71
2023/02/28 02:02:25;;;;;;;1.83;1.47;;;;;;;8.04;48.72;103128.38;6205662;28;20228;-71
2023/02/28 02:05:47;;;;;;;2.17;2.00;;;;;;;8.01;49.16;103137.41;6207585;28;20231;-71
2023/02/28 02:09:09;;;;;;;3.60;2.07;;;;;;;8.09;49.41;103132.59;6233161;28;20244;-72
2023/02/28 02:12:43;;;;;;;2.83;1.90;;;;;;;7.61;49.97;103134.66;6226233;28;20231;-72
2023/02/28 02:16:19;;;;;;;1.80;1.43;;;;;;;7.85;49.04;103117.53;6220685;28;20235;-72
2023/02/28 02:20:20;;;;;;;2.37;1.97;;;;;;;7.85;49.12;103130.94;6221813;28;20225;-71
2023/02/28 02:24:04;;;;;;;3.40;1.63;;;;;;;7.83;49.95;103132.81;6229869;28;20236;-72
2023/02/28 02:27:34;;;;;;;2.50;2.33;;;;;;;7.64;50.42;103131.81;6228460;28;20236;-71
2023/02/28 02:31:24;;;;;;;2.67;1.77;;;;;;;7.60;50.21;103130.19;6227127;28;20227;-70
2023/02/28 02:35:12;;;;;;;3.03;2.03;;;;;;;7.39;50.53;103123.00;6227434;28;20305;-71
2023/02/28 02:38:38;;;;;;;1.73;1.63;;;;;;;7.39;51.08;103128.38;6237285;28;20739;-71
2023/02/28 02:42:02;;;;;;;2.80;2.37;;;;;;;7.21;51.06;103121.03;6220585;28;20236;-71
2023/02/28 02:45:27;;;;;;;2.33;1.87;;;;;;;6.62;52.84;103125.09;6219706;28;20239;-70
2023/02/28 02:48:53;;;;;;;5.33;1.60;;;;;;;6.19;54.16;103126.63;6234769;28;20236;-71
2023/02/28 02:52:21;;;;;;;2.23;2.10;;;;;;;6.42;53.96;103126.66;6226110;28;20815;-71
2023/02/28 02:55:46;;;;;;;2.63;2.20;;;;;;;6.52;54.18;103118.31;6229170;28;20323;-71
2023/02/28 02:59:12;;;;;;;3.03;2.00;;;;;;;6.65;53.10;103127.66;6243711;28;20239;-71
2023/02/28 03:02:35;;;;;;;3.20;1.93;;;;;;;6.06;54.80;103119.06;6236952;28;20240;-71
2023/02/28 03:05:58;;;;;;;5.40;3.37;;;;;;;6.12;54.98;103114.38;6229717;28;20264;-71
2023/02/28 03:09:20;;;;;;;2.73;2.03;;;;;;;5.72;56.16;103124.63;6229887;28;20283;-71
2023/02/28 03:12:50;;;;;;;2.63;2.43;;;;;;;5.70;56.69;103126.47;6230871;28;20236;-71
2023/02/28 03:16:43;;;;;;;8.37;3.87;;;;;;;5.84;56.34;103131.41;6218483;28;20418;-71
2023/02/28 03:20:17;;;;;;;1.67;1.57;;;;;;;6.05;55.63;103123.53;6214629;28;20239;-71
2023/02/28 03:23:43;;;;;;;7.10;2.03;;;;;;;5.62;57.06;103131.19;6239735;28;20255;-71
2023/02/28 03:27:10;;;;;;;4.30;3.90;;;;;;;6.16;55.90;103129.41;6204231;28;20855;-71
2023/02/28 03:30:40;;;;;;;5.63;3.43;;;;;;;6.42;54.73;103129.34;6212606;28;20242;-70
2023/02/28 03:34:07;;;;;;;2.97;2.60;;;;;;;6.42;54.72;103132.03;6239290;28;20317;-70
2023/02/28 03:37:30;;;;;;;4.27;3.30;;;;;;;6.17;55.92;103128.47;6232695;28;20239;-71
2023/02/28 03:40:56;;;;;;;3.60;2.57;;;;;;;6.22;55.97;103142.56;6228362;28;20240;-70
2023/02/28 03:44:24;;;;;;;2.53;2.33;;;;;;;6.45;54.57;103131.94;6239991;28;20231;-71
2023/02/28 03:47:50;;;;;;;4.70;2.87;;;;;;;6.34;54.86;103141.28;6244423;28;20235;-71
2023/02/28 03:51:16;;;;;;;3.70;3.33;;;;;;;6.24;55.40;103132.69;6230200;28;20889;-71
2023/02/28 03:54:43;;;;;;;3.43;2.73;;;;;;;6.37;54.86;103134.00;6231477;28;20223;-71
2023/02/28 03:58:12;;;;;;;9.50;2.20;;;;;;;6.09;56.47;103137.72;6233487;28;20828;-71
2023/02/28 04:01:38;;;;;;;2.30;2.03;;;;;;;6.16;57.63;103137.44;6223155;28;20228;-72
2023/02/28 04:05:00;;;;;;;2.37;2.17;;;;;;;5.96;57.89;103136.34;6219056;28;20622;-72
2023/02/28 04:08:22;;;;;;;5.30;3.03;;;;;;;5.88;57.86;103149.13;6233036;28;20231;-71
2023/02/28 04:11:45;;;;;;;5.60;2.77;;;;;;;5.76;58.36;103147.66;6227611;28;20232;-70
2023/02/28 04:15:08;;;;;;;3.77;3.40;;;;;;;6.01;58.10;103143.28;6225767;28;20624;-71
2023/02/28 04:18:30;;;;;;;3.53;3.10;;;;;;;5.82;58.04;103141.25;6238190;28;20244;-72
2023/02/28 04:21:53;;;;;;;4.47;4.07;;;;;;;5.94;57.62;103146.25;6214383;28;20254;-70
2023/02/28 04:25:14;;;;;;;6.23;3.10;;;;;;;5.73;58.30;103147.78;6222961;28;20227;-70
2023/02/28 04:28:35;;;;;;;2.43;2.20;;;;;;;6.12;56.45;103148.28;6231213;28;20236;-71
2023/02/28 04:31:57;;;;;;;3.70;3.40;;;;;;;6.01;56.62;103154.00;6220909;28;20231;-71
2023/02/28 04:35:20;;;;;;;4.70;3.07;;;;;;;5.74;58.17;103146.84;6228764;28;20247;-70
2023/02/28 04:38:41;;;;;;;3.47;2.67;;;;;;;5.75;58.08;103145.94;6241809;28;20228;-71
2023/02/28 04:42:02;;;;;;;14.10;10.53;;;;;;;5.64;58.62;103154.31;6228798;28;20252;-71
2023/02/28 04:45:23;;;;;;;32.60;24.17;;;;;;;5.69;58.44;103149.66;6218304;28;20307;-70
2023/02/28 04:48:44;;;;;;;15.40;10.43;;;;;;;5.78;57.84;103144.97;6231455;28;20689;-71
2023/02/28 04:52:07;;;;;;;6.30;5.70;;;;;;;5.57;58.85;103152.75;6222006;28;20236;-70
2023/02/28 04:55:28;;;;;;;3.90;3.33;;;;;;;5.72;57.84;103153.16;6212524;28;20357;-71
2023/02/28 04:58:50;;;;;;;3.30;3.00;;;;;;;5.79;57.63;103152.94;6227811;28;21106;-70
2023/02/28 05:02:11;;;;;;;2.80;2.27;;;;;;;5.74;58.59;103151.34;6208863;28;20235;-71
2023/02/28 05:05:32;;;;;;;10.07;6.13;;;;;;;5.69;59.15;103151.50;6236829;28;20232;-70
2023/02/28 05:08:54;;;;;;;24.63;18.53;;;;;;;5.65;58.65;103153.38;6240830;28;20633;-71
2023/02/28 05:12:15;;;;;;;32.57;21.53;;;;;;;5.73;58.01;103158.50;6212912;28;20319;-71
2023/02/28 05:15:36;;;;;;;9.60;8.23;;;;;;;5.58;58.91;103167.88;6223020;28;20232;-70
2023/02/28 05:18:57;;;;;;;4.87;4.37;;;;;;;5.26;59.91;103175.13;6243507;28;20243;-70
2023/02/28 05:22:18;;;;;;;23.23;17.13;;;;;;;5.20;60.66;103172.63;6221749;28;20231;-70
2023/02/28 05:25:40;;;;;;;20.60;14.00;;;;;;;5.39;60.71;103173.84;6211340;28;20235;-71
2023/02/28 05:29:01;;;;;;;7.40;5.70;;;;;;;5.32;59.81;103170.47;6231766;28;20235;-72
2023/02/28 05:32:22;;;;;;;6.27;4.73;;;;;;;5.33;59.58;103169.56;6221642;28;20836;-71
2023/02/28 05:35:43;;;;;;;3.43;3.13;;;;;;;5.44;59.50;103171.91;6226364;28;20239;-71
2023/02/28 05:39:05;;;;;;;4.73;3.27;;;;;;;5.27;60.43;103176.88;6236525;28;20236;-72
2023/02/28 05:42:28;;;;;;;4.20;3.00;;;;;;;5.36;60.35;103179.28;6222627;28;20228;-71
2023/02/28 05:45:49;;;;;;;6.50;4.03;;;;;;;5.37;60.22;103170.34;6219677;28;20236;-71
2023/02/28 05:49:09;;;;;;;3.97;3.37;;;;;;;5.30;60.29;103168.78;6236693;28;20239;-71
2023/02/28 05:52:30;;;;;;;7.73;3.53;;;;;;;5.19;60.09;103171.78;6234007;28;21482;-72
2023/02/28 05:55:51;;;;;;;4.13;3.20;;;;;;;5.14;60.96;103178.16;6208778;28;20231;-71
2023/02/28 05:59:14;;;;;;;8.37;2.77;;;;;;;5.14;61.43;103188.84;6226708;28;20244;-71
2023/02/28 06:02:35;;;;;;;5.30;4.73;;;;;;;5.25;60.61;103186.75;6215328;28;20241;-71
2023/02/28 06:05:56;;;;;;;5.70;3.90;;;;;;;5.39;59.97;103185.41;6205526;28;20234;-69
2023/02/28 06:09:18;;;;;;;3.97;3.63;;;;;;;5.32;59.91;103182.97;6221781;28;20228;-70
2023/02/28 06:12:41;;;;;;;4.97;3.70;;;;;;;5.22;61.12;103184.16;6235026;28;20602;-72
2023/02/28 06:16:03;;;;;;;9.07;3.50;;;;;;;5.28;60.42;103186.63;6214869;28;20270;-72
2023/02/28 06:19:25;;;;;;;3.47;3.17;;;;;;;5.04;61.65;103192.72;6232600;28;20240;-71
2023/02/28 06:22:46;;;;;;;5.03;4.60;;;;;;;5.17;61.47;103194.13;6227112;28;20239;-72
2023/02/28 06:26:07;;;;;;;7.90;4.90;;;;;;;4.53;63.51;103203.03;6215448;28;20243;-72
2023/02/28 06:29:28;;;;;;;4.20;3.43;;;;;;;4.51;63.59;103194.19;6220967;28;20224;-71
2023/02/28 06:32:50;;;;;;;6.50;4.50;;;;;;;4.82;62.50;103200.44;6223360;28;20228;-71
2023/02/28 06:36:13;;;;;;;4.17;3.77;;;;;;;5.07;62.09;103201.50;6218858;28;20233;-71
2023/02/28 06:39:34;;;;;;;8.33;3.50;;;;;;;5.21;61.53;103203.81;6206755;28;20239;-72
2023/02/28 06:42:55;;;;;;;4.43;3.27;;;;;;;5.04;62.91;103209.63;6235178;28;20609;-76
2023/02/28 06:46:16;;;;;;;4.17;3.20;;;;;;;5.69;62.32;103197.81;6224637;28;20236;-70
2023/02/28 06:49:38;;;;;;;6.77;3.60;;;;;;;5.71;60.57;103205.84;6224169;28;20236;-71
2023/02/28 06:52:59;;;;;;;3.57;3.23;;;;;;;5.66;59.86;103199.72;6223256;28;20251;-71
2023/02/28 06:56:21;;;;;;;5.60;3.20;;;;;;;5.55;60.27;103209.88;6212962;28;20236;-72
2023/02/28 06:59:42;;;;;;;4.50;3.87;;;;;;;5.21;61.54;103211.81;6219550;28;20244;-72
2023/02/28 07:03:03;;;;;;;5.10;3.23;;;;;;;4.86;62.95;103213.69;6218567;28;20237;-71
2023/02/28 07:06:25;;;;;;;4.90;3.73;;;;;;;4.21;65.48;103217.25;6223591;28;20232;-72
2023/02/28 07:09:46;;;;;;;6.63;3.97;;;;;;;4.72;64.87;103223.88;6229087;28;20650;-71
2023/02/28 07:13:08;;;;;;;5.20;4.77;;;;;;;4.91;64.56;103216.25;6242110;28;20240;-71
2023/02/28 07:16:29;;;;;;;8.00;3.67;;;;;;;4.87;63.83;103217.25;6243550;28;20479;-71
2023/02/28 07:19:50;;;;;;;5.37;4.13;;;;;;;5.18;63.01;103215.47;6240430;28;20240;-71
2023/02/28 07:23:12;;;;;;;7.63;4.53;;;;;;;5.29;62.48;103217.81;6238159;28;20259;-70
2023/02/28 07:26:33;;;;;;;4.87;4.10;;;;;;;5.35;62.50;103220.31;6236659;28;21070;-70
2023/02/28 07:29:55;;;;;;;5.20;3.67;;;;;;;5.26;63.13;103225.91;6222174;28;20227;-71
2023/02/28 07:33:16;;;;;;;6.57;4.07;;;;;;;5.36;63.37;103222.09;6217977;28;20509;-72
2023/02/28 07:36:37;;;;;;;5.87;3.83;;;;;;;5.97;61.17;103208.56;6211447;28;20616;-70
2023/02/28 07:40:01;;;;;;;8.67;6.10;;;;;;;6.10;61.41;103212.63;6222428;28;20227;-71
2023/02/28 07:43:21;;;;;;;10.37;6.10;;;;;;;5.84;61.53;103217.91;6231902;28;20231;-69
2023/02/28 07:46:42;;;;;;;6.00;4.30;;;;;;;6.40;60.04;103213.41;6224247;28;20231;-72
2023/02/28 07:50:03;;;;;;;8.67;5.50;;;;;;;6.62;59.60;103217.09;6238859;28;20231;-75
2023/02/28 07:53:23;;;;;;;9.67;4.70;;;;;;;6.23;60.79;103218.44;6238356;28;20236;-70
2023/02/28 07:56:45;;;;;;;8.63;5.40;;;;;;;6.51;59.99;103221.91;6228301;28;22200;-71
2023/02/28 08:00:09;;;;;;;4.97;3.63;;;;;;;6.00;61.21;103223.66;6234192;28;20610;-74
2023/02/28 08:03:35;;;;;;;10.13;5.07;;;;;;;5.97;61.75;103227.31;6226342;28;20310;-74
2023/02/28 08:06:56;;;;;;;12.40;4.57;;;;;;;5.96;61.77;103228.25;6239573;28;20235;-73
2023/02/28 08:10:17;;;;;;;5.83;4.43;;;;;;;6.34;61.12;103219.81;6227351;28;20231;-74
2023/02/28 08:13:39;;;;;;;8.90;4.63;;;;;;;6.59;59.81;103221.69;6228914;28;20314;-73
2023/02/28 08:17:00;;;;;;;5.27;4.30;;;;;;;7.01;58.30;103217.44;6232625;28;20244;-72
2023/02/28 08:20:21;;;;;;;7.37;5.50;;;;;;;6.88;58.65;103237.63;6229781;28;20793;-72
2023/02/28 08:23:42;;;;;;;6.83;4.97;;;;;;;6.84;58.33;103226.09;6230499;28;20280;-71
2023/02/28 08:27:03;;;;;;;6.67;4.93;;;;;;;6.39;60.29;103227.72;6232251;28;20228;-72
2023/02/28 08:30:25;;;;;;;5.47;4.80;;;;;;;6.92;59.07;103225.84;6231695;28;20238;-72
2023/02/28 08:33:48;;;;;;;3.87;3.53;;;;;;;7.22;57.56;103227.41;6237549;28;20686;-72
2023/02/28 08:37:09;;;;;;;7.27;3.40;;;;;;;7.72;55.94;103226.34;6220086;28;20231;-71
2023/02/28 08:40:30;;;;;;;5.33;4.33;;;;;;;7.51;56.68;103227.16;6230669;28;20227;-73
2023/02/28 08:43:50;;;;;;;9.50;5.07;;;;;;;8.08;55.90;103224.88;6233550;28;20236;-73
2023/02/28 08:47:13;;;;;;;7.50;6.23;;;;;;;8.23;56.23;103227.88;6225474;28;20903;-72
2023/02/28 08:50:34;;;;;;;9.10;4.80;;;;;;;8.00;54.25;103223.44;6225305;28;20231;-72
2023/02/28 08:53:55;;;;;;;6.00;4.77;;;;;;;8.23;53.27;103226.06;6232494;28;20236;-71
2023/02/28 08:57:16;;;;;;;9.00;4.10;;;;;;;8.39;53.26;103231.69;6231059;28;20439;-72
2023/02/28 09:00:37;;;;;;;5.07;3.83;;;;;;;8.17;53.12;103233.50;6233075;28;20668;-71
2023/02/28 09:04:01;;;;;;;5.20;4.67;;;;;;;7.93;53.06;103229.97;6250448;28;20232;-70
2023/02/28 09:07:22;;;;;;;3.50;2.87;;;;;;;8.36;53.47;103234.53;6241328;28;20232;-70
2023/02/28 09:10:43;;;;;;;7.47;4.50;;;;;;;8.03;53.27;103234.91;6229205;28;20231;-70
2023/02/28 09:14:04;;;;;;;9.13;3.83;;;;;;;8.48;51.08;103231.31;6242025;28;20347;-73
2023/02/28 09:17:25;;;;;;;3.23;2.73;;;;;;;7.94;49.68;103232.63;6239970;28;20239;-72
2023/02/28 09:20:47;;;;;;;4.57;2.80;;;;;;;8.43;47.73;103234.19;6235687;28;20321;-72
2023/02/28 09:24:08;;;;;;;3.00;2.40;;;;;;;8.82;46.57;103237.00;6238557;28;20232;-73
2023/02/28 09:27:29;;;;;;;3.70;3.07;;;;;;;7.98;46.83;103244.13;6197879;28;20228;-72
2023/02/28 09:30:52;;;;;;;3.50;2.80;;;;;;;8.63;45.81;103233.34;6233235;28;20231;-72
2023/02/28 09:34:13;;;;;;;3.97;2.53;;;;;;;9.06;46.18;103235.91;6231785;28;20231;-73
2023/02/28 09:37:35;;;;;;;6.97;2.90;;;;;;;8.26;45.28;103242.06;6237368;28;20970;-73
2023/02/28 09:40:59;;;;;;;6.73;3.57;;;;;;;9.19;44.77;103239.78;6235506;28;20504;-70
2023/02/28 09:44:29;;;;;;;2.23;2.03;;;;;;;9.75;42.19;103238.97;6243188;28;20232;-70
2023/02/28 09:47:53;;;;;;;2.47;2.27;;;;;;;8.81;44.13;103248.69;6247827;28;20231;-71
2023/02/28 09:51:27;;;;;;;5.30;2.23;;;;;;;8.93;43.28;103256.22;6225633;28;20236;-71
2023/02/28 09:54:50;;;;;;;2.00;1.70;;;;;;;10.41;41.37;103250.06;6240466;28;20669;-70
2023/02/28 09:58:19;;;;;;;2.10;1.60;;;;;;;10.99;40.02;103245.25;6233872;28;20240;-74
2023/02/28 10:01:48;;;;;;;6.97;2.70;;;;;;;16.43;29.38;103232.50;6228342;28;20243;-73
2023/02/28 10:05:12;;;;;;;5.20;2.77;;;;;;;18.87;26.96;103227.94;6237714;28;20231;-73
2023/02/28 10:08:41;;;;;;;1.33;1.23;;;;;;;21.91;23.09;103221.28;6228126;28;20223;-72
2023/02/28 10:12:06;;;;;;;2.93;0.90;;;;;;;23.38;20.63;103229.81;6225106;28;20235;-71
2023/02/28 10:15:31;;;;;;;1.60;1.27;;;;;;;25.25;18.58;103219.97;6235427;28;20232;-72
2023/02/28 10:19:04;;;;;;;6.15;5.10;;;;;;;26.33;18.34;103219.22;6229617;28;20327;-72
2023/02/28 10:22:28;;;;;;;2.90;1.63;;;;;;;24.14;18.92;103208.66;6226799;28;20233;-70
2023/02/28 10:25:55;;;;;;;5.85;2.20;;;;;;;27.18;16.91;103218.03;6225333;28;20231;-73
2023/02/28 10:29:18;;;;;;;1.45;1.35;;;;;;;20.38;21.47;103229.81;6239522;28;20505;-72
2023/02/28 10:32:40;;;;;;;2.25;1.10;;;;;;;20.53;22.35;103228.38;6243553;28;20232;-73
2023/02/28 10:36:01;;;;;;;1.65;1.55;;;;;;;20.08;21.79;103229.84;6231725;28;20243;-73
2023/02/28 10:39:37;;;;;;;1.42;1.33;;;;;;;18.81;23.71;103227.59;6231957;28;20239;-71
2023/02/28 10:42:59;;;;;;;1.42;1.30;;;;;;;17.11;24.65;103227.19;6238393;28;20232;-71
2023/02/28 10:46:26;;;;;;;2.65;1.00;;;;;;;25.26;18.41;103210.63;6234539;28;20639;-74
2023/02/28 10:49:49;;;;;;;1.30;1.02;;;;;;;28.23;15.72;103214.03;6231421;28;20605;-72
2023/02/28 10:53:48;;;;;;;2.30;0.88;;;;;;;21.61;21.06;103224.31;6230651;28;20232;-75
2023/02/28 10:57:18;;;;;;;1.55;0.95;;;;;;;21.08;22.28;103233.13;6182160;28;20240;-70
2023/02/28 11:00:39;;;;;;;1.60;1.20;;;;;;;22.37;19.04;103223.91;6222888;28;20247;-71
2023/02/28 11:04:02;;;;;;;5.22;1.80;;;;;;;21.80;20.13;103229.72;6238817;28;20231;-70
2023/02/28 11:07:27;;;;;;;1.40;1.25;;;;;;;22.46;18.63;103222.97;6230789;28;20573;-71
2023/02/28 11:10:54;;;;;;;1.10;1.00;;;;;;;25.50;16.87;103217.16;6238210;28;20244;-72
2023/02/28 11:14:21;;;;;;;1.38;1.27;;;;;;;28.31;15.06;103206.44;6242848;28;20227;-72
2023/02/28 11:17:43;;;;;;;3.70;1.77;;;;;;;25.42;15.84;103220.81;6244844;28;20224;-72
2023/02/28 11:21:06;;;;;;;1.60;1.30;;;;;;;22.99;19.02;103217.44;6233417;28;20605;-71
2023/02/28 11:24:30;;;;;;;1.92;1.10;;;;;;;24.50;16.66;103207.38;6243132;28;20236;-71
2023/02/28 11:27:53;;;;;;;2.75;1.67;;;;;;;23.39;17.49;103208.63;6249037;28;20228;-71
2023/02/28 11:31:19;;;;;;;1.50;1.40;;;;;;;22.08;19.29;103215.00;6216074;28;20228;-71
2023/02/28 11:34:41;;;;;;;2.08;1.90;;;;;;;18.41;22.81;103221.03;6228628;28;20228;-72
2023/02/28 11:38:03;;;;;;;4.60;2.25;;;;;;;20.44;21.68;103201.84;6231420;28;20240;-70
2023/02/28 11:41:49;;;;;;;3.65;1.02;;;;;;;23.10;19.11;103192.41;6219288;28;20315;-71
2023/02/28 11:45:22;;;;;;;2.00;1.27;;;;;;;25.62;16.63;103191.72;6224936;28;20235;-70
2023/02/28 11:48:53;;;;;;;1.52;1.42;;;;;;;22.19;18.45;103196.41;6239495;28;20240;-71
2023/02/28 11:52:22;;;;;;;2.03;1.88;;;;;;;22.90;18.95;103180.78;6227298;28;20547;-71
2023/02/28 11:55:49;;;;;;;1.58;1.48;;;;;;;21.85;18.89;103186.19;6234030;28;20806;-71
2023/02/28 11:59:35;;;;;;;1.73;1.63;;;;;;;22.51;18.44;103184.84;6223726;28;20410;-72
2023/02/28 12:03:12;;;;;;;3.53;1.45;;;;;;;22.66;18.34;103183.31;6221994;28;20235;-73
2023/02/28 12:06:41;;;;;;;1.52;1.42;;;;;;;26.08;16.74;103170.63;6203074;28;20562;-74
2023/02/28 12:10:15;;;;;;;5.07;1.75;;;;;;;24.45;16.74;103170.28;6221522;28;20236;-73
2023/02/28 12:13:49;;;;;;;3.03;2.08;;;;;;;27.84;15.37;103163.59;6223486;28;20224;-74
2023/02/28 12:17:22;;;;;;;4.43;1.73;;;;;;;28.27;14.66;103163.50;6219508;28;20237;-72
2023/02/28 12:20:50;;;;;;;1.55;1.45;;;;;;;23.42;18.08;103153.25;6227147;28;20510;-72
2023/02/28 12:24:29;;;;;;;1.48;1.38;;;;;;;27.67;14.64;103140.75;6223765;28;20236;-72
2023/02/28 12:27:52;;;;;;;1.58;1.48;;;;;;;22.48;18.79;103146.69;6227554;28;20231;-69
2023/02/28 12:31:20;;;;;;;3.42;1.63;;;;;;;25.14;15.91;103136.59;6217907;28;21584;-69
2023/02/28 12:34:47;;;;;;;1.67;1.58;;;;;;;26.00;16.02;103135.56;6216889;28;20231;-69
2023/02/28 12:38:13;;;;;;;2.25;1.33;;;;;;;27.24;14.62;103136.09;6226414;28;20767;-73
2023/02/28 12:41:40;;;;;;;1.95;1.20;;;;;;;25.28;16.13;103130.38;6211915;28;20319;-73
2023/02/28 12:45:08;;;;;;;1.38;0.77;;;;;;;26.84;16.15;103116.09;6223903;28;20239;-72
2023/02/28 12:48:38;;;;;;;1.30;1.20;;;;;;;19.52;21.01;103131.00;6229095;28;20228;-72
2023/02/28 12:52:01;;;;;;;1.77;1.20;;;;;;;21.00;19.72;103116.91;6216799;28;20533;-72
2023/02/28 12:55:28;;;;;;;1.90;1.25;;;;;;;21.56;19.52;103109.47;6225390;28;20224;-72
2023/02/28 12:58:55;;;;;;;2.05;0.93;;;;;;;23.58;17.98;103096.34;6230547;28;20270;-73
2023/02/28 13:02:45;;;;;;;1.90;1.70;;;;;;;23.92;17.98;103093.50;6220820;28;20236;-71
2023/02/28 13:06:45;;;;;;;0.90;0.90;;;;;;;24.30;17.77;103086.53;6212578;28;20235;-74
2023/02/28 13:10:08;;;;;;;6.63;5.38;;;;;;;23.08;18.24;103084.38;6196555;28;20528;-74
2023/02/28 13:13:31;;;;;;;3.53;2.58;;;;;;;22.58;18.35;103088.84;6238665;28;20232;-73
2023/02/28 13:17:02;;;;;;;3.40;1.63;;;;;;;22.85;18.61;103074.97;6217239;28;20639;-73
2023/02/28 13:20:26;;;;;;;3.47;1.17;;;;;;;21.36;20.07;103077.66;6219589;28;20231;-73
2023/02/28 13:24:05;;;;;;;2.78;1.50;;;;;;;20.66;20.98;103064.47;6234907;28;20255;-72
2023/02/28 13:27:39;;;;;;;1.70;1.33;;;;;;;19.66;22.35;103071.28;6228662;28;20219;-75
2023/02/28 13:31:05;;;;;;;0.80;0.80;;;;;;;20.59;21.34;103066.94;6223368;28;20550;-73
2023/02/28 13:34:26;;;;;;;3.38;1.20;;;;;;;22.44;19.74;103061.94;6228004;28;20282;-71
2023/02/28 13:37:49;;;;;;;1.98;1.25;;;;;;;23.62;18.53;103059.16;6235574;28;20255;-73
2023/02/28 13:41:43;;;;;;;1.23;1.15;;;;;;;24.64;17.03;103055.97;6226795;28;20240;-72
2023/02/28 13:45:26;;;;;;;2.28;1.70;;;;;;;26.21;16.08;103062.16;6219230;28;20232;-71
2023/02/28 13:48:47;;;;;;;2.30;1.67;;;;;;;25.59;15.67;103061.38;6220015;28;20568;-74
2023/02/28 13:52:17;;;;;;;1.90;1.05;;;;;;;24.04;17.29;103066.50;6232914;28;20314;-72
2023/02/28 13:55:46;;;;;;;1.38;1.23;;;;;;;24.30;17.20;103058.94;6221752;28;20235;-72
2023/02/28 13:59:22;;;;;;;0.88;0.88;;;;;;;23.18;18.19;103063.09;6240186;28;20236;-74
2023/02/28 14:03:01;;;;;;;1.88;1.42;;;;;;;20.87;19.63;103072.47;6234469;28;20262;-72
2023/02/28 14:06:26;;;;;;;1.95;1.48;;;;;;;18.38;21.95;103081.00;6224969;28;20235;-71
2023/02/28 14:09:56;;;;;;;1.20;1.10;;;;;;;19.96;20.77;103069.41;6234025;28;20232;-72
2023/02/28 14:13:46;;;;;;;2.38;1.40;;;;;;;21.88;19.30;103067.81;6230111;28;20612;-74
2023/02/28 14:17:14;;;;;;;3.33;1.23;;;;;;;19.40;21.81;103078.25;6231199;28;20244;-72
2023/02/28 14:20:36;;;;;;;3.70;1.70;;;;;;;18.71;21.94;103071.72;6217887;28;20235;-71
2023/02/28 14:24:33;;;;;;;2.33;1.67;;;;;;;15.95;25.29;103090.13;6239715;28;20287;-70
2023/02/28 14:28:05;;;;;;;6.17;1.93;;;;;;;19.92;21.22;103069.69;6248248;28;20359;-70
2023/02/28 14:31:35;;;;;;;3.00;1.50;;;;;;;22.02;19.45;103073.59;6211343;28;20240;-72
2023/02/28 14:35:13;;;;;;;1.27;1.03;;;;;;;23.36;18.33;103061.16;6215152;28;21756;-72
2023/02/28 14:38:42;;;;;;;2.55;0.80;;;;;;;23.28;17.91;103065.75;6245955;28;20410;-70
2023/02/28 14:42:04;;;;;;;3.55;3.05;;;;;;;22.69;18.07;103066.63;6228192;28;20535;-70
2023/02/28 14:45:27;;;;;;;1.07;1.00;;;;;;;19.51;21.38;103069.06;6218176;28;20704;-71
2023/02/28 14:48:50;;;;;;;2.77;1.10;;;;;;;20.72;19.98;103072.09;6234679;28;20330;-69
2023/02/28 14:52:17;;;;;;;1.93;0.90;;;;;;;19.87;20.67;103084.84;6220068;28;20227;-72
2023/02/28 14:55:45;;;;;;;1.00;0.90;;;;;;;20.44;20.17;103065.66;6227411;28;20231;-72
2023/02/28 14:59:23;;;;;;;3.40;1.50;;;;;;;19.56;20.89;103075.88;6222109;28;20631;-73
2023/02/28 15:02:44;;;;;;;1.50;1.27;;;;;;;19.07;21.84;103070.31;6238121;28;20732;-70
2023/02/28 15:06:07;;;;;;;0.80;0.80;;;;;;;19.71;21.20;103070.84;6238655;28;20228;-70
2023/02/28 15:09:29;;;;;;;1.53;1.43;;;;;;;19.83;20.43;103062.38;6228335;28;20232;-70
2023/02/28 15:12:57;;;;;;;0.97;0.93;;;;;;;19.53;20.37;103053.38;6233681;28;20241;-73
2023/02/28 15:16:22;;;;;;;2.40;0.80;;;;;;;19.29;21.38;103058.31;6229906;28;20898;-71
2023/02/28 15:19:47;;;;;;;1.73;1.47;;;;;;;18.19;22.38;103049.97;6239190;28;20324;-70
2023/02/28 15:23:10;;;;;;;1.53;1.33;;;;;;;15.70;25.40;103063.03;6241077;28;20310;-72
2023/02/28 15:26:34;;;;;;;2.33;1.67;;;;;;;15.05;26.03;103048.88;6234064;28;20227;-71
2023/02/28 15:29:57;;;;;;;0.93;0.83;;;;;;;15.92;25.05;103048.66;6237568;28;20251;-74
2023/02/28 15:33:22;;;;;;;2.50;1.40;;;;;;;16.02;27.75;103046.97;6245981;28;20255;-73
2023/02/28 15:36:42;;;;;;;1.93;1.30;;;;;;;15.24;27.29;103051.09;6226228;28;20232;-66
2023/02/28 15:40:14;;;;;;;1.60;1.50;;;;;;;13.74;28.71;103049.19;6234290;28;20236;-70
2023/02/28 15:43:39;;;;;;;3.40;1.30;;;;;;;13.37;29.61;103042.66;6242917;28;20263;-73
2023/02/28 15:47:03;;;;;;;1.33;1.10;;;;;;;12.76;30.53;103045.69;6228428;28;20628;-73
2023/02/28 15:50:24;;;;;;;2.93;1.90;;;;;;;13.21;30.51;103050.03;6234518;28;20269;-72
2023/02/28 15:53:49;;;;;;;2.27;1.53;;;;;;;12.92;30.28;103037.47;6243853;28;20232;-73
2023/02/28 15:57:16;;;;;;;1.47;1.37;;;;;;;13.08;31.34;103040.97;6235379;28;20231;-72
2023/02/28 16:00:37;;;;;;;2.47;1.43;;;;;;;12.99;31.34;103045.09;6235538;28;20531;-72